createdAt,value
2022-12-03T00:02:13.526Z,78.72
2022-12-03T00:04:39.995Z,78.78
2022-12-03T00:07:06.387Z,79.00
2022-12-03T00:09:32.731Z,79.20
2022-12-03T00:11:59.172Z,78.97
2022-12-03T00:14:25.507Z,78.85
2022-12-03T00:16:51.868Z,79.07
2022-12-03T00:19:18.242Z,78.70
2022-12-03T00:21:44.570Z,79.08
2022-12-03T00:24:10.899Z,78.84
2022-12-03T00:26:37.363Z,79.06
2022-12-03T00:29:03.864Z,79.47
2022-12-03T00:31:30.269Z,79.39
2022-12-03T00:33:56.652Z,79.78
2022-12-03T00:36:23.093Z,79.79
2022-12-03T00:38:49.407Z,79.44
2022-12-03T00:41:15.889Z,79.68
2022-12-03T00:43:42.267Z,79.94
2022-12-03T00:46:08.739Z,79.65
2022-12-03T00:48:35.267Z,79.65
2022-12-03T00:51:01.675Z,79.85
2022-12-03T00:53:28.140Z,79.65
2022-12-03T00:55:54.515Z,79.60
2022-12-03T00:58:20.854Z,79.63
2022-12-03T01:00:47.213Z,80.21
2022-12-03T01:03:13.617Z,79.85
2022-12-03T01:05:39.971Z,80.16
2022-12-03T01:08:06.362Z,79.88
2022-12-03T01:10:32.756Z,79.86
2022-12-03T01:12:59.152Z,80.23
2022-12-03T01:15:25.509Z,80.26
2022-12-03T01:17:54.224Z,80.14
2022-12-03T01:20:20.943Z,80.09
2022-12-03T01:22:47.293Z,80.35
2022-12-03T01:25:13.714Z,80.53
2022-12-03T01:27:40.062Z,80.56
2022-12-03T01:30:07.308Z,80.44
2022-12-03T01:32:33.730Z,80.13
2022-12-03T01:35:00.242Z,80.53
2022-12-03T01:37:27.282Z,80.59
2022-12-03T01:39:53.686Z,80.30
2022-12-03T01:42:33.703Z,80.81
2022-12-03T01:45:00.672Z,80.68
2022-12-03T01:47:33.434Z,80.73
2022-12-03T01:50:15.444Z,80.78
2022-12-03T01:52:42.510Z,80.95
2022-12-03T01:55:14.762Z,80.86
2022-12-03T01:57:50.097Z,80.66
2022-12-03T02:00:19.095Z,80.94
2022-12-03T02:02:48.162Z,80.89
2022-12-03T02:05:20.932Z,81.12
2022-12-03T02:07:47.442Z,81.10
2022-12-03T02:10:16.917Z,81.17
2022-12-03T02:12:49.914Z,81.30
2022-12-03T02:15:16.686Z,81.43
2022-12-03T02:17:43.252Z,80.97
2022-12-03T02:20:11.494Z,81.02
2022-12-03T02:22:45.674Z,81.15
2022-12-03T02:25:18.150Z,81.41
2022-12-03T02:27:45.486Z,81.36
2022-12-03T02:30:13.921Z,81.56
2022-12-03T02:32:40.671Z,81.83
2022-12-03T02:35:13.863Z,81.87
2022-12-03T02:37:41.696Z,81.71
2022-12-03T02:40:12.374Z,81.34
2022-12-03T02:42:39.311Z,81.55
2022-12-03T02:45:20.745Z,81.53
2022-12-03T02:47:51.726Z,81.22
2022-12-03T02:50:21.943Z,81.31
2022-12-03T02:52:49.262Z,81.47
2022-12-03T02:55:17.166Z,81.50
2022-12-03T02:57:46.801Z,81.50
2022-12-03T03:00:13.930Z,81.40
2022-12-03T03:02:41.697Z,81.50
2022-12-03T03:05:11.688Z,81.54
2022-12-03T03:07:39.494Z,81.82
2022-12-03T03:10:09.198Z,81.50
2022-12-03T03:12:39.203Z,82.05
2022-12-03T03:15:08.002Z,81.90
2022-12-03T03:17:34.386Z,81.71
2022-12-03T03:20:01.032Z,81.85
2022-12-03T03:22:35.589Z,81.86
2022-12-03T03:25:02.890Z,81.93
2022-12-03T03:27:29.785Z,82.03
2022-12-03T03:29:58.355Z,81.82
2022-12-03T03:32:26.635Z,81.95
2022-12-03T03:34:53.397Z,81.96
2022-12-03T03:37:20.118Z,81.81
2022-12-03T03:39:46.684Z,81.88
2022-12-03T03:42:13.160Z,82.17
2022-12-03T03:44:39.630Z,81.87
2022-12-03T03:47:06.244Z,81.65
2022-12-03T03:49:32.889Z,82.39
2022-12-03T03:51:59.418Z,82.06
2022-12-03T03:54:25.962Z,82.11
2022-12-03T03:56:52.563Z,82.56
2022-12-03T03:59:19.006Z,82.21
2022-12-03T04:01:46.205Z,82.17
2022-12-03T04:04:21.312Z,82.02
2022-12-03T04:06:47.875Z,82.26
2022-12-03T04:09:14.669Z,82.08
2022-12-03T04:12:00.131Z,81.96
2022-12-03T04:14:26.504Z,81.73
2022-12-03T04:16:52.871Z,81.64
2022-12-03T04:19:19.287Z,81.66
2022-12-03T04:22:04.470Z,81.54
2022-12-03T04:24:30.864Z,81.98
2022-12-03T04:27:15.855Z,81.50
2022-12-03T04:29:42.227Z,81.70
2022-12-03T04:32:27.269Z,81.58
2022-12-03T04:35:12.144Z,81.65
2022-12-03T04:37:38.564Z,81.60
2022-12-03T04:40:25.776Z,81.60
2022-12-03T04:42:52.140Z,81.79
2022-12-03T04:45:18.491Z,81.97
2022-12-03T04:47:44.986Z,81.73
2022-12-03T04:50:11.526Z,81.41
2022-12-03T04:52:37.875Z,81.70
2022-12-03T04:55:04.495Z,81.62
2022-12-03T04:57:30.849Z,81.73
2022-12-03T04:59:57.227Z,81.77
2022-12-03T05:02:23.854Z,82.00
2022-12-03T05:04:50.407Z,81.83
2022-12-03T05:07:16.945Z,81.64
2022-12-03T05:09:43.297Z,81.88
2022-12-03T05:12:09.649Z,82.05
2022-12-03T05:14:35.990Z,81.58
2022-12-03T05:17:02.416Z,81.85
2022-12-03T05:19:47.542Z,81.91
2022-12-03T05:22:13.907Z,81.52
2022-12-03T05:24:40.254Z,81.84
2022-12-03T05:27:06.600Z,81.73
2022-12-03T05:29:33.243Z,81.90
2022-12-03T05:31:59.577Z,82.10
2022-12-03T05:34:25.946Z,81.83
2022-12-03T05:36:52.303Z,82.14
2022-12-03T05:39:18.655Z,82.01
2022-12-03T05:42:03.638Z,82.08
2022-12-03T05:44:30.011Z,82.30
2022-12-03T05:46:56.367Z,81.88
2022-12-03T05:49:22.791Z,81.95
2022-12-03T05:51:52.470Z,81.86
2022-12-03T05:54:21.488Z,82.15
2022-12-03T05:56:47.835Z,82.01
2022-12-03T05:59:14.286Z,82.04
2022-12-03T06:01:40.631Z,81.79
2022-12-03T06:04:07.094Z,81.93
2022-12-03T06:06:33.476Z,81.80
2022-12-03T06:08:59.872Z,81.58
2022-12-03T06:11:26.227Z,81.61
2022-12-03T06:13:52.570Z,81.58
2022-12-03T06:16:18.945Z,81.49
2022-12-03T06:18:45.359Z,81.75
2022-12-03T06:21:11.744Z,81.88
2022-12-03T06:23:44.386Z,81.65
2022-12-03T06:26:11.947Z,81.78
2022-12-03T06:28:38.278Z,81.66
2022-12-03T06:31:04.905Z,81.35
2022-12-03T06:33:31.323Z,81.35
2022-12-03T06:35:57.671Z,81.42
2022-12-03T06:38:24.015Z,81.51
2022-12-03T06:40:50.378Z,81.59
2022-12-03T06:43:16.728Z,81.38
2022-12-03T06:45:47.547Z,81.54
2022-12-03T06:48:14.546Z,81.52
2022-12-03T06:50:40.932Z,81.42
2022-12-03T06:53:07.287Z,81.35
2022-12-03T06:55:33.625Z,81.46
2022-12-03T06:57:59.973Z,81.28
2022-12-03T07:00:26.360Z,81.00
2022-12-03T07:02:52.823Z,81.02
2022-12-03T07:05:19.956Z,80.98
2022-12-03T07:07:51.962Z,80.95
2022-12-03T07:10:19.215Z,81.02
2022-12-03T07:12:45.563Z,81.24
2022-12-03T07:15:12.092Z,80.71
2022-12-03T07:17:38.575Z,80.79
2022-12-03T07:20:05.842Z,80.84
2022-12-03T07:22:32.284Z,80.26
2022-12-03T07:24:58.727Z,80.40
2022-12-03T07:27:25.131Z,80.44
2022-12-03T07:29:51.666Z,80.54
2022-12-03T07:32:18.031Z,80.44
2022-12-03T07:34:44.370Z,80.79
2022-12-03T07:37:10.748Z,80.84
2022-12-03T07:39:37.139Z,80.87
2022-12-03T07:42:03.835Z,80.94
2022-12-03T07:44:31.773Z,81.06
2022-12-03T07:46:58.584Z,81.05
2022-12-03T07:49:26.623Z,81.17
2022-12-03T07:51:56.972Z,81.14
2022-12-03T07:54:24.554Z,81.40
2022-12-03T07:56:50.943Z,81.34
2022-12-03T07:59:17.536Z,81.33
2022-12-03T08:01:44.025Z,81.23
2022-12-03T08:04:12.839Z,81.23
2022-12-03T08:06:39.214Z,81.18
2022-12-03T08:09:05.611Z,81.24
2022-12-03T08:11:32.879Z,81.45
2022-12-03T08:13:59.236Z,81.72
2022-12-03T08:16:26.094Z,81.57
2022-12-03T08:18:54.787Z,81.51
2022-12-03T08:21:21.845Z,81.61
2022-12-03T08:23:48.851Z,81.38
2022-12-03T08:26:28.295Z,81.55
2022-12-03T08:28:54.868Z,81.06
2022-12-03T08:31:32.264Z,81.27
2022-12-03T08:34:15.553Z,81.42
2022-12-03T08:36:42.021Z,81.23
2022-12-03T08:39:28.351Z,81.51
2022-12-03T08:42:18.443Z,81.10
2022-12-03T08:44:44.891Z,81.53
2022-12-03T08:47:22.688Z,81.21
2022-12-03T08:50:23.490Z,81.55
2022-12-03T08:52:49.979Z,82.02
2022-12-03T08:55:36.105Z,81.66
2022-12-03T08:58:23.306Z,81.26
2022-12-03T09:01:02.832Z,81.45
2022-12-03T09:03:31.738Z,80.89
2022-12-03T09:05:58.143Z,81.28
2022-12-03T09:08:24.482Z,81.25
2022-12-03T09:10:50.846Z,81.37
2022-12-03T09:13:17.196Z,81.30
2022-12-03T09:15:43.588Z,81.32
2022-12-03T09:18:10.053Z,81.36
2022-12-03T09:20:36.418Z,81.35
2022-12-03T09:23:02.882Z,81.40
2022-12-03T09:25:29.326Z,81.05
2022-12-03T09:27:55.659Z,81.38
2022-12-03T09:30:22.073Z,81.27
2022-12-03T09:32:48.467Z,81.26
2022-12-03T09:35:14.948Z,81.58
2022-12-03T09:37:41.324Z,81.59
2022-12-03T09:40:08.604Z,81.74
2022-12-03T09:42:35.399Z,80.98
2022-12-03T09:45:03.471Z,81.23
2022-12-03T09:47:31.783Z,80.76
2022-12-03T09:49:58.770Z,80.72
2022-12-03T09:52:28.342Z,80.15
2022-12-03T09:54:55.259Z,80.46
2022-12-03T09:57:21.891Z,80.11
2022-12-03T09:59:48.382Z,79.04
2022-12-03T10:02:31.282Z,79.15
2022-12-03T10:04:58.309Z,78.93
2022-12-03T10:07:25.377Z,79.40
2022-12-03T10:09:52.260Z,79.28
2022-12-03T10:12:24.497Z,79.86
2022-12-03T10:14:52.201Z,79.81
2022-12-03T10:17:18.921Z,79.70
2022-12-03T10:19:45.521Z,79.85
2022-12-03T10:22:11.892Z,79.87
2022-12-03T10:24:38.682Z,79.74
2022-12-03T10:27:20.834Z,79.97
2022-12-03T10:29:56.042Z,79.99
2022-12-03T10:32:45.967Z,80.29
2022-12-03T10:35:23.440Z,80.11
2022-12-03T10:38:05.188Z,80.30
2022-12-03T10:40:32.604Z,80.62
2022-12-03T10:43:26.745Z,80.71
2022-12-03T10:46:03.562Z,80.36
2022-12-03T10:48:30.794Z,80.52
2022-12-03T10:51:04.074Z,80.23
2022-12-03T10:53:33.875Z,80.48
2022-12-03T10:56:03.631Z,80.12
2022-12-03T10:58:38.998Z,80.25
2022-12-03T11:01:20.192Z,79.97
2022-12-03T11:03:47.652Z,79.92
2022-12-03T11:06:16.553Z,79.84
2022-12-03T11:08:45.777Z,80.00
2022-12-03T11:11:15.118Z,79.50
2022-12-03T11:13:41.451Z,79.59
2022-12-03T11:16:10.728Z,79.96
2022-12-03T11:18:37.204Z,80.56
2022-12-03T11:21:05.540Z,79.92
2022-12-03T11:23:44.074Z,80.12
2022-12-03T11:26:19.475Z,79.95
2022-12-03T11:28:46.110Z,79.88
2022-12-03T11:31:44.895Z,79.79
2022-12-03T11:34:20.595Z,79.34
2022-12-03T11:37:11.895Z,79.48
2022-12-03T11:40:24.754Z,79.33
2022-12-03T11:42:51.123Z,79.40
2022-12-03T11:45:32.020Z,79.11
2022-12-03T11:47:58.332Z,78.88
2022-12-03T11:50:37.783Z,79.15
2022-12-03T11:53:16.603Z,79.20
2022-12-03T11:55:51.911Z,79.00
2022-12-03T11:58:29.037Z,79.17
2022-12-03T12:00:57.835Z,78.82
2022-12-03T12:03:46.249Z,79.15
2022-12-03T12:06:15.759Z,78.94
2022-12-03T12:08:51.199Z,78.85
2022-12-03T12:11:19.749Z,78.76
2022-12-03T12:13:50.152Z,78.52
2022-12-03T12:16:35.728Z,78.60
2022-12-03T12:19:34.420Z,78.72
2022-12-03T12:22:27.349Z,78.59
2022-12-03T12:25:01.843Z,78.91
2022-12-03T12:27:49.421Z,79.14
2022-12-03T12:30:21.698Z,78.72
2022-12-03T12:33:12.579Z,78.80
2022-12-03T12:35:38.948Z,78.44
2022-12-03T12:38:10.757Z,78.76
2022-12-03T12:40:39.981Z,78.59
2022-12-03T12:43:20.295Z,78.47
2022-12-03T12:45:52.222Z,78.61
2022-12-03T12:48:23.076Z,78.66
2022-12-03T12:51:01.631Z,78.55
2022-12-03T12:53:33.319Z,78.92
2022-12-03T12:56:31.424Z,78.24
2022-12-03T12:59:09.238Z,79.38
2022-12-03T13:01:36.390Z,79.23
2022-12-03T13:04:11.626Z,79.34
2022-12-03T13:06:38.607Z,79.30
2022-12-03T13:09:12.993Z,79.26
2022-12-03T13:11:45.438Z,79.29
2022-12-03T13:14:16.922Z,79.34
2022-12-03T13:16:44.208Z,79.17
2022-12-03T13:19:23.603Z,78.96
2022-12-03T13:21:52.367Z,79.01
2022-12-03T13:24:35.819Z,79.29
2022-12-03T13:27:19.673Z,79.04
2022-12-03T13:29:49.512Z,79.68
2022-12-03T13:32:19.412Z,79.89
2022-12-03T13:34:46.693Z,79.56
2022-12-03T13:37:22.348Z,79.99
2022-12-03T13:39:55.111Z,80.24
2022-12-03T13:42:46.478Z,80.48
2022-12-03T13:45:18.941Z,80.15
2022-12-03T13:48:08.634Z,80.37
2022-12-03T13:50:36.691Z,80.95
2022-12-03T13:53:15.835Z,80.78
2022-12-03T13:55:47.671Z,80.87
2022-12-03T13:58:14.014Z,81.14
2022-12-03T14:00:40.447Z,80.93
2022-12-03T14:03:06.793Z,81.04
2022-12-03T14:05:33.275Z,81.21
2022-12-03T14:08:02.290Z,81.08
2022-12-03T14:10:29.443Z,81.10
2022-12-03T14:12:56.435Z,81.14
2022-12-03T14:15:22.975Z,81.13
2022-12-03T14:17:49.362Z,81.35
2022-12-03T14:20:15.871Z,81.24
2022-12-03T14:22:42.350Z,81.56
2022-12-03T14:25:08.903Z,81.59
2022-12-03T14:27:35.266Z,81.22
2022-12-03T14:30:01.650Z,81.46
2022-12-03T14:32:28.418Z,81.35
2022-12-03T14:34:54.846Z,81.05
2022-12-03T14:37:21.195Z,80.74
2022-12-03T14:39:47.586Z,80.62
2022-12-03T14:42:13.933Z,80.64
2022-12-03T14:44:42.419Z,80.26
2022-12-03T14:47:09.575Z,80.17
2022-12-03T14:49:35.963Z,80.67
2022-12-03T14:52:02.318Z,80.37
2022-12-03T14:54:28.675Z,80.05
2022-12-03T14:56:55.167Z,79.95
2022-12-03T14:59:27.228Z,79.82
2022-12-03T15:01:54.128Z,80.12
2022-12-03T15:04:20.703Z,80.04
2022-12-03T15:06:47.068Z,79.87
2022-12-03T15:09:13.719Z,80.07
2022-12-03T15:11:45.754Z,80.23
2022-12-03T15:14:12.625Z,80.20
2022-12-03T15:16:39.059Z,79.70
2022-12-03T15:19:05.487Z,79.71
2022-12-03T15:21:34.798Z,79.92
2022-12-03T15:24:02.136Z,79.61
2022-12-03T15:26:28.847Z,79.95
2022-12-03T15:28:55.180Z,79.86
2022-12-03T15:31:21.730Z,79.76
2022-12-03T15:33:48.185Z,79.49
2022-12-03T15:36:14.825Z,79.88
2022-12-03T15:38:41.290Z,79.93
2022-12-03T15:41:27.055Z,80.17
2022-12-03T15:43:53.425Z,80.15
2022-12-03T15:46:20.212Z,79.58
2022-12-03T15:48:47.813Z,79.95
2022-12-03T15:51:14.440Z,79.92
2022-12-03T15:53:41.288Z,79.87
2022-12-03T15:56:07.840Z,80.17
2022-12-03T15:58:34.689Z,79.87
2022-12-03T16:01:01.369Z,80.09
2022-12-03T16:03:28.070Z,80.23
2022-12-03T16:05:54.645Z,80.32
2022-12-03T16:08:21.391Z,80.32
2022-12-03T16:10:47.888Z,80.51
2022-12-03T16:13:14.258Z,80.39
2022-12-03T16:15:40.667Z,80.50
2022-12-03T16:18:07.096Z,80.57
2022-12-03T16:20:34.059Z,80.42
2022-12-03T16:23:00.418Z,80.67
2022-12-03T16:25:26.879Z,80.48
2022-12-03T16:27:53.231Z,80.45
2022-12-03T16:30:19.673Z,80.35
2022-12-03T16:32:46.049Z,80.45
2022-12-03T16:35:12.393Z,80.61
2022-12-03T16:37:38.903Z,80.55
2022-12-03T16:40:06.084Z,80.77
2022-12-03T16:42:32.515Z,80.64
2022-12-03T16:45:04.488Z,80.60
2022-12-03T16:47:34.039Z,80.83
2022-12-03T16:50:05.346Z,80.91
2022-12-03T16:52:31.708Z,80.38
2022-12-03T16:54:58.081Z,80.82
2022-12-03T16:57:27.594Z,80.68
2022-12-03T16:59:56.770Z,80.63
2022-12-03T17:02:24.636Z,81.00
2022-12-03T17:04:51.099Z,80.70
2022-12-03T17:07:32.644Z,80.71
2022-12-03T17:09:59.041Z,80.62
2022-12-03T17:12:25.622Z,80.73
2022-12-03T17:14:56.442Z,80.81
2022-12-03T17:17:22.970Z,80.97
2022-12-03T17:19:50.335Z,80.70
2022-12-03T17:22:16.718Z,80.71
2022-12-03T17:24:43.175Z,81.11
2022-12-03T17:27:09.718Z,80.74
2022-12-03T17:29:36.073Z,80.48
2022-12-03T17:32:03.007Z,80.70
2022-12-03T17:34:29.469Z,80.91
2022-12-03T17:36:55.856Z,80.99
2022-12-03T17:39:22.319Z,81.09
2022-12-03T17:41:48.663Z,80.99
2022-12-03T17:44:19.461Z,81.20
2022-12-03T17:46:47.656Z,81.08
2022-12-03T17:49:14.069Z,81.13
2022-12-03T17:51:40.507Z,80.61
2022-12-03T17:54:07.268Z,80.82
2022-12-03T17:56:33.787Z,80.91
2022-12-03T17:59:00.147Z,80.51
2022-12-03T18:01:26.557Z,80.81
2022-12-03T18:03:53.017Z,81.04
2022-12-03T18:06:19.419Z,81.31
2022-12-03T18:08:45.796Z,80.71
2022-12-03T18:11:12.292Z,81.20
2022-12-03T18:13:38.701Z,80.69
2022-12-03T18:16:05.544Z,81.08
2022-12-03T18:18:31.918Z,80.69
2022-12-03T18:21:02.021Z,81.04
2022-12-03T18:23:29.064Z,81.16
2022-12-03T18:25:55.865Z,80.90
2022-12-03T18:28:22.895Z,80.95
2022-12-03T18:30:52.802Z,80.63
2022-12-03T18:33:19.851Z,80.63
2022-12-03T18:35:46.199Z,80.73
2022-12-03T18:38:15.159Z,80.84
2022-12-03T18:40:43.794Z,80.55
2022-12-03T18:43:15.892Z,80.55
2022-12-03T18:45:42.761Z,80.86
2022-12-03T18:48:12.668Z,80.84
2022-12-03T18:50:39.724Z,80.48
2022-12-03T18:53:07.690Z,80.70
2022-12-03T18:55:35.208Z,80.66
2022-12-03T18:58:01.772Z,80.64
2022-12-03T19:00:28.170Z,80.71
2022-12-03T19:03:03.142Z,80.98
2022-12-03T19:05:32.540Z,80.41
2022-12-03T19:07:59.349Z,80.77
2022-12-03T19:10:25.931Z,80.33
2022-12-03T19:12:52.310Z,80.55
2022-12-03T19:15:18.790Z,80.26
2022-12-03T19:17:49.647Z,80.56
2022-12-03T19:20:16.300Z,80.37
2022-12-03T19:22:42.662Z,80.57
2022-12-03T19:25:09.259Z,80.37
2022-12-03T19:27:35.630Z,80.76
2022-12-03T19:30:02.000Z,80.27
2022-12-03T19:32:28.399Z,80.15
2022-12-03T19:34:54.799Z,80.13
2022-12-03T19:37:21.156Z,80.33
2022-12-03T19:39:47.516Z,80.00
2022-12-03T19:42:13.886Z,80.21
2022-12-03T19:44:40.259Z,79.56
2022-12-03T19:47:06.659Z,79.67
2022-12-03T19:49:33.035Z,79.64
2022-12-03T19:51:59.397Z,79.63
2022-12-03T19:54:25.807Z,79.83
2022-12-03T19:56:52.286Z,79.69
2022-12-03T19:59:18.694Z,79.32
2022-12-03T20:01:45.205Z,79.53
2022-12-03T20:04:12.693Z,79.49
2022-12-03T20:06:39.285Z,79.33
2022-12-03T20:09:08.593Z,79.13
2022-12-03T20:11:35.467Z,79.43
2022-12-03T20:14:05.154Z,79.23
2022-12-03T20:16:31.708Z,79.46
2022-12-03T20:19:00.158Z,79.43
2022-12-03T20:21:28.297Z,79.59
2022-12-03T20:23:54.767Z,79.48
2022-12-03T20:26:22.100Z,79.61
2022-12-03T20:28:49.148Z,79.22
2022-12-03T20:31:18.608Z,79.43
2022-12-03T20:33:47.411Z,79.43
2022-12-03T20:36:15.380Z,79.55
2022-12-03T20:38:41.859Z,79.20
2022-12-03T20:41:11.499Z,79.01
2022-12-03T20:43:38.436Z,78.95
2022-12-03T20:46:23.924Z,79.42
2022-12-03T20:48:50.318Z,79.46
2022-12-03T20:51:19.819Z,79.46
2022-12-03T20:53:46.911Z,79.54
2022-12-03T20:56:34.580Z,79.54
2022-12-03T20:59:04.868Z,79.14
2022-12-03T21:01:31.331Z,78.92
2022-12-03T21:03:58.369Z,79.25
2022-12-03T21:06:27.776Z,79.49
2022-12-03T21:08:55.256Z,79.10
2022-12-03T21:11:24.177Z,79.31
2022-12-03T21:13:51.238Z,79.23
2022-12-03T21:16:34.171Z,79.21
2022-12-03T21:19:07.943Z,79.21
2022-12-03T21:21:36.442Z,79.24
2022-12-03T21:24:03.028Z,79.44
2022-12-03T21:26:29.432Z,79.22
2022-12-03T21:28:55.975Z,79.51
2022-12-03T21:31:25.717Z,79.30
2022-12-03T21:33:56.524Z,79.48
2022-12-03T21:36:23.346Z,79.27
2022-12-03T21:38:49.697Z,79.23
2022-12-03T21:41:16.560Z,79.48
2022-12-03T21:43:43.720Z,79.51
2022-12-03T21:47:09.876Z,79.22
2022-12-03T21:49:03.496Z,79.34
2022-12-03T21:51:29.929Z,79.60
2022-12-03T21:53:56.281Z,79.14
2022-12-03T21:56:22.675Z,79.20
2022-12-03T21:58:49.042Z,79.92
2022-12-03T22:01:21.907Z,79.29
2022-12-03T22:03:49.016Z,79.39
2022-12-03T22:06:15.950Z,79.59
2022-12-03T22:08:43.196Z,79.61
2022-12-03T22:11:13.347Z,79.56
2022-12-03T22:13:40.855Z,79.49
2022-12-03T22:16:10.183Z,79.70
2022-12-03T22:18:36.584Z,79.61
2022-12-03T22:21:08.461Z,79.27
2022-12-03T22:23:34.918Z,79.63
2022-12-03T22:26:04.944Z,79.65
2022-12-03T22:28:31.607Z,79.80
2022-12-03T22:30:58.311Z,79.55
2022-12-03T22:33:25.016Z,79.92
2022-12-03T22:35:59.330Z,80.19
2022-12-03T22:38:26.424Z,80.29
2022-12-03T22:40:52.880Z,79.26
2022-12-03T22:43:19.772Z,79.81
2022-12-03T22:45:46.909Z,79.46
2022-12-03T22:48:13.956Z,79.71
2022-12-03T22:50:43.109Z,80.02
2022-12-03T22:53:09.590Z,80.00
2022-12-03T22:55:35.951Z,79.59
2022-12-03T22:58:02.792Z,79.59
2022-12-03T23:00:32.211Z,79.56
2022-12-03T23:02:58.659Z,79.88
2022-12-03T23:05:25.114Z,80.00
2022-12-03T23:07:52.070Z,79.99
2022-12-03T23:10:18.445Z,79.41
2022-12-03T23:12:44.807Z,79.74
2022-12-03T23:15:11.390Z,79.88
2022-12-03T23:17:37.722Z,79.94
2022-12-03T23:20:04.565Z,80.05
2022-12-03T23:22:30.922Z,79.88
2022-12-03T23:24:57.435Z,79.91
2022-12-03T23:27:23.941Z,80.22
2022-12-03T23:29:50.288Z,80.18
2022-12-03T23:32:16.638Z,80.38
2022-12-03T23:34:43.075Z,80.50
2022-12-03T23:37:09.865Z,80.39
2022-12-03T23:39:36.246Z,79.66
2022-12-03T23:42:03.725Z,80.04
2022-12-03T23:44:30.204Z,80.14
2022-12-03T23:46:56.761Z,79.97
2022-12-03T23:49:23.227Z,80.04
2022-12-03T23:51:49.615Z,80.16
2022-12-03T23:54:15.973Z,80.10
2022-12-03T23:56:42.327Z,80.00
2022-12-03T23:59:08.720Z,80.35
